createdAt,value
2023-01-29T00:02:08.308Z,102401.81
2023-01-29T00:04:36.400Z,102396.50
2023-01-29T00:07:04.216Z,102383.53
2023-01-29T00:09:32.218Z,102383.66
2023-01-29T00:12:01.421Z,102383.72
2023-01-29T00:14:29.328Z,102388.06
2023-01-29T00:16:57.188Z,102392.50
2023-01-29T00:19:25.067Z,102394.75
2023-01-29T00:21:52.871Z,102386.78
2023-01-29T00:24:20.699Z,102386.47
2023-01-29T00:26:50.013Z,102377.81
2023-01-29T00:29:19.559Z,102380.84
2023-01-29T00:31:47.515Z,102377.09
2023-01-29T00:34:17.187Z,102368.75
2023-01-29T00:36:45.657Z,102351.75
2023-01-29T00:39:14.148Z,102347.44
2023-01-29T00:41:59.690Z,102345.56
2023-01-29T00:44:45.326Z,102344.34
2023-01-29T00:47:27.026Z,102347.31
2023-01-29T00:49:54.842Z,102335.63
2023-01-29T00:52:26.303Z,102338.19
2023-01-29T00:54:55.370Z,102340.53
2023-01-29T00:57:23.422Z,102344.66
2023-01-29T00:59:52.725Z,102339.66
2023-01-29T01:02:38.556Z,102320.31
2023-01-29T01:05:10.624Z,102328.78
2023-01-29T01:07:38.487Z,102328.56
2023-01-29T01:10:21.226Z,102333.88
2023-01-29T01:12:51.953Z,102334.75
2023-01-29T01:15:21.424Z,102333.09
2023-01-29T01:17:49.853Z,102334.75
2023-01-29T01:20:18.059Z,102322.66
2023-01-29T01:22:46.097Z,102333.09
2023-01-29T01:25:13.959Z,102339.28
2023-01-29T01:27:41.960Z,102332.41
2023-01-29T01:30:12.329Z,102332.09
2023-01-29T01:32:42.013Z,102340.44
2023-01-29T01:35:11.043Z,102334.34
2023-01-29T01:37:39.142Z,102343.56
2023-01-29T01:40:12.742Z,102343.38
2023-01-29T01:42:40.808Z,102331.97
2023-01-29T01:45:25.832Z,102338.63
2023-01-29T01:48:00.440Z,102334.53
2023-01-29T01:50:32.371Z,102332.75
2023-01-29T01:53:05.843Z,102344.81
2023-01-29T01:55:35.257Z,102340.59
2023-01-29T01:58:08.367Z,102348.16
2023-01-29T02:00:36.265Z,102344.25
2023-01-29T02:03:23.405Z,102343.56
2023-01-29T02:06:11.961Z,102338.25
2023-01-29T02:09:05.983Z,102337.38
2023-01-29T02:11:37.248Z,102336.38
2023-01-29T02:14:05.436Z,102327.97
2023-01-29T02:16:35.265Z,102321.38
2023-01-29T02:19:12.230Z,102315.06
2023-01-29T02:22:03.480Z,102319.09
2023-01-29T02:24:54.706Z,102318.66
2023-01-29T02:27:58.292Z,102323.09
2023-01-29T02:30:34.987Z,102329.41
2023-01-29T02:33:11.702Z,102326.66
2023-01-29T02:35:46.797Z,102331.75
2023-01-29T02:38:24.581Z,102327.50
2023-01-29T02:40:57.599Z,102327.44
2023-01-29T02:43:35.371Z,102332.31
2023-01-29T02:46:17.518Z,102328.59
2023-01-29T02:48:54.518Z,102327.56
2023-01-29T02:51:27.670Z,102325.81
2023-01-29T02:54:01.068Z,102324.03
2023-01-29T02:56:36.651Z,102327.16
2023-01-29T02:59:08.743Z,102347.38
2023-01-29T03:01:44.451Z,102349.22
2023-01-29T03:04:20.939Z,102347.56
2023-01-29T03:06:54.240Z,102353.03
2023-01-29T03:09:27.785Z,102354.50
2023-01-29T03:12:19.924Z,102358.50
2023-01-29T03:15:14.107Z,102368.28
2023-01-29T03:17:53.684Z,102374.25
2023-01-29T03:20:29.607Z,102369.72
2023-01-29T03:23:02.967Z,102370.41
2023-01-29T03:25:50.307Z,102371.72
2023-01-29T03:28:38.700Z,102377.63
2023-01-29T03:31:28.378Z,102381.72
2023-01-29T03:34:06.512Z,102372.75
2023-01-29T03:37:10.245Z,102368.22
2023-01-29T03:39:38.198Z,102377.09
2023-01-29T03:42:21.531Z,102367.66
2023-01-29T03:45:10.610Z,102354.03
2023-01-29T03:47:54.898Z,102353.03
2023-01-29T03:50:40.686Z,102358.81
2023-01-29T03:53:35.338Z,102348.94
2023-01-29T03:56:24.803Z,102354.94
2023-01-29T03:59:22.786Z,102341.53
2023-01-29T04:02:32.023Z,102344.84
2023-01-29T04:05:22.412Z,102341.84
2023-01-29T04:08:25.074Z,102343.38
2023-01-29T04:10:58.786Z,102339.97
2023-01-29T04:13:31.986Z,102354.25
2023-01-29T04:16:06.118Z,102363.69
2023-01-29T04:19:02.946Z,102361.00
2023-01-29T04:21:47.239Z,102351.47
2023-01-29T04:24:41.068Z,102354.03
2023-01-29T04:27:37.298Z,102350.28
2023-01-29T04:30:30.668Z,102338.19
2023-01-29T04:33:16.859Z,102335.66
2023-01-29T04:36:17.088Z,102321.22
2023-01-29T04:39:22.047Z,102318.34
2023-01-29T04:42:27.679Z,102320.44
2023-01-29T04:45:04.751Z,102304.63
2023-01-29T04:47:44.563Z,102307.41
2023-01-29T04:50:24.163Z,102293.53
2023-01-29T04:53:15.572Z,102305.59
2023-01-29T04:55:55.299Z,102314.03
2023-01-29T04:58:35.454Z,102316.34
2023-01-29T05:01:10.075Z,102314.03
2023-01-29T05:03:52.294Z,102318.34
2023-01-29T05:06:23.107Z,102329.31
2023-01-29T05:08:56.953Z,102320.91
2023-01-29T05:11:38.411Z,102315.69
2023-01-29T05:14:26.765Z,102306.06
2023-01-29T05:17:14.609Z,102297.31
2023-01-29T05:19:52.737Z,102302.50
2023-01-29T05:22:25.073Z,102304.97
2023-01-29T05:24:56.651Z,102292.22
2023-01-29T05:27:54.013Z,102298.28
2023-01-29T05:30:30.350Z,102316.13
2023-01-29T05:33:01.630Z,102288.22
2023-01-29T05:35:42.033Z,102299.53
2023-01-29T05:38:28.724Z,102298.41
2023-01-29T05:41:20.998Z,102292.97
2023-01-29T05:44:15.783Z,102292.88
2023-01-29T05:46:55.087Z,102294.63
2023-01-29T05:49:44.397Z,102298.97
2023-01-29T05:52:19.030Z,102292.88
2023-01-29T05:54:48.436Z,102279.03
2023-01-29T06:00:13.624Z,102282.78
2023-01-29T06:02:47.023Z,102272.50
2023-01-29T06:05:24.590Z,102277.81
2023-01-29T06:07:59.173Z,102282.44
2023-01-29T06:10:28.058Z,102284.78
2023-01-29T06:13:01.142Z,102289.97
2023-01-29T06:15:36.447Z,102295.97
2023-01-29T06:18:09.003Z,102299.41
2023-01-29T06:20:39.155Z,102300.16
2023-01-29T06:23:08.261Z,102300.16
2023-01-29T06:25:45.955Z,102291.75
2023-01-29T06:28:26.545Z,102298.63
2023-01-29T06:31:22.036Z,102298.72
2023-01-29T06:34:00.793Z,102296.97
2023-01-29T06:36:34.493Z,102297.84
2023-01-29T06:39:09.522Z,102284.09
2023-01-29T06:41:41.447Z,102296.41
2023-01-29T06:44:17.305Z,102288.66
2023-01-29T06:46:52.268Z,102296.22
2023-01-29T06:49:25.040Z,102299.88
2023-01-29T06:52:02.000Z,102324.56
2023-01-29T06:54:41.945Z,102317.91
2023-01-29T06:57:16.374Z,102338.53
2023-01-29T06:59:51.331Z,102342.28
2023-01-29T07:02:28.274Z,102346.72
2023-01-29T07:05:02.734Z,102360.56
2023-01-29T07:07:37.549Z,102359.13
2023-01-29T07:10:09.416Z,102354.38
2023-01-29T07:12:45.887Z,102356.56
2023-01-29T07:15:21.959Z,102344.13
2023-01-29T07:18:18.152Z,102342.56
2023-01-29T07:20:49.756Z,102333.59
2023-01-29T07:23:18.052Z,102318.72
2023-01-29T07:25:46.224Z,102330.88
2023-01-29T07:28:14.026Z,102333.56
2023-01-29T07:30:41.852Z,102334.94
2023-01-29T07:33:11.112Z,102335.06
2023-01-29T07:35:40.446Z,102332.59
2023-01-29T07:38:10.955Z,102346.00
2023-01-29T07:40:38.807Z,102350.97
2023-01-29T07:43:08.438Z,102333.97
2023-01-29T07:45:37.679Z,102340.47
2023-01-29T07:48:06.653Z,102345.84
2023-01-29T07:50:36.320Z,102341.78
2023-01-29T07:53:04.677Z,102340.44
2023-01-29T07:55:34.253Z,102337.41
2023-01-29T07:58:04.150Z,102336.84
2023-01-29T08:00:33.052Z,102328.13
2023-01-29T08:03:05.149Z,102340.72
2023-01-29T08:05:32.925Z,102332.19
2023-01-29T08:08:07.035Z,102335.16
2023-01-29T08:10:37.514Z,102333.56
2023-01-29T08:13:06.591Z,102330.25
2023-01-29T08:15:38.069Z,102331.09
2023-01-29T08:18:07.454Z,102315.69
2023-01-29T08:20:35.224Z,102315.00
2023-01-29T08:23:04.686Z,102330.16
2023-01-29T08:25:33.134Z,102342.63
2023-01-29T08:28:02.961Z,102342.84
2023-01-29T08:30:33.424Z,102335.47
2023-01-29T08:33:01.882Z,102330.16
2023-01-29T08:35:29.916Z,102327.91
2023-01-29T08:37:59.579Z,102334.97
2023-01-29T08:40:28.601Z,102331.72
2023-01-29T08:43:02.013Z,102341.09
2023-01-29T08:45:32.503Z,102333.72
2023-01-29T08:48:00.411Z,102333.22
2023-01-29T08:50:29.982Z,102317.69
2023-01-29T08:52:59.900Z,102320.69
2023-01-29T08:55:28.135Z,102320.31
2023-01-29T08:57:57.312Z,102322.47
2023-01-29T09:00:25.651Z,102326.19
2023-01-29T09:02:55.044Z,102325.41
2023-01-29T09:05:22.865Z,102319.28
2023-01-29T09:07:52.629Z,102321.66
2023-01-29T09:10:21.213Z,102312.63
2023-01-29T09:12:49.125Z,102321.66
2023-01-29T09:15:17.193Z,102313.88
2023-01-29T09:17:45.334Z,102316.63
2023-01-29T09:20:14.601Z,102308.22
2023-01-29T09:22:42.569Z,102318.13
2023-01-29T09:25:11.536Z,102326.84
2023-01-29T09:27:39.531Z,102329.97
2023-01-29T09:30:08.501Z,102320.78
2023-01-29T09:35:25.767Z,102310.00
2023-01-29T09:37:54.058Z,102310.38
2023-01-29T09:40:27.676Z,102309.44
2023-01-29T09:43:01.307Z,102296.69
2023-01-29T09:45:30.369Z,102297.50
2023-01-29T09:48:01.485Z,102302.09
2023-01-29T09:50:33.893Z,102277.53
2023-01-29T09:53:06.310Z,102286.00
2023-01-29T09:55:40.550Z,102289.63
2023-01-29T09:58:17.664Z,102286.53
2023-01-29T10:00:54.168Z,102283.72
2023-01-29T10:03:37.889Z,102273.38
2023-01-29T10:06:29.271Z,102272.72
2023-01-29T10:09:27.976Z,102262.72
2023-01-29T10:12:07.055Z,102246.75
2023-01-29T10:14:46.317Z,102248.53
2023-01-29T10:17:31.405Z,102242.94
2023-01-29T10:20:14.854Z,102231.00
2023-01-29T10:23:03.602Z,102227.03
2023-01-29T10:25:36.112Z,102232.69
2023-01-29T10:28:03.965Z,102230.66
2023-01-29T10:30:34.842Z,102221.53
2023-01-29T10:33:04.704Z,102231.72
2023-01-29T10:35:38.465Z,102235.16
2023-01-29T10:38:22.597Z,102245.75
2023-01-29T10:41:00.017Z,102246.16
2023-01-29T10:43:38.133Z,102241.50
2023-01-29T10:46:20.430Z,102234.31
2023-01-29T10:49:01.186Z,102237.44
2023-01-29T10:51:45.729Z,102224.03
2023-01-29T10:54:30.958Z,102233.06
2023-01-29T10:57:10.800Z,102227.28
2023-01-29T10:59:53.615Z,102224.66
2023-01-29T11:02:22.730Z,102211.63
2023-01-29T11:04:50.871Z,102209.00
2023-01-29T11:07:23.072Z,102203.31
2023-01-29T11:09:58.807Z,102194.81
2023-01-29T11:12:30.678Z,102192.69
2023-01-29T11:15:04.212Z,102190.84
2023-01-29T11:17:32.076Z,102188.13
2023-01-29T11:19:59.944Z,102189.66
2023-01-29T11:22:29.561Z,102184.56
2023-01-29T11:25:17.749Z,102170.94
2023-01-29T11:27:47.336Z,102167.31
2023-01-29T11:30:24.767Z,102163.50
2023-01-29T11:33:07.586Z,102155.81
2023-01-29T11:35:36.514Z,102152.22
2023-01-29T11:38:10.472Z,102145.47
2023-01-29T11:40:41.774Z,102144.59
2023-01-29T11:43:24.043Z,102141.19
2023-01-29T11:45:54.643Z,102143.88
2023-01-29T11:48:28.146Z,102136.03
2023-01-29T11:51:03.160Z,102133.31
2023-01-29T11:53:44.340Z,102120.28
2023-01-29T11:56:23.254Z,102117.97
2023-01-29T11:58:55.378Z,102113.84
2023-01-29T12:01:32.080Z,102104.56
2023-01-29T12:04:00.924Z,102098.72
2023-01-29T12:06:36.237Z,102094.06
2023-01-29T12:09:14.464Z,102097.28
2023-01-29T12:11:45.408Z,102087.47
2023-01-29T12:14:27.984Z,102087.28
2023-01-29T12:16:59.687Z,102084.84
2023-01-29T12:19:34.230Z,102085.22
2023-01-29T12:22:07.571Z,102089.16
2023-01-29T12:24:42.271Z,102085.13
2023-01-29T12:27:18.628Z,102078.31
2023-01-29T12:29:53.537Z,102069.44
2023-01-29T12:32:30.856Z,102071.38
2023-01-29T12:35:05.893Z,102054.09
2023-01-29T12:37:41.752Z,102045.88
2023-01-29T12:40:15.473Z,102042.00
2023-01-29T12:42:49.807Z,102031.47
2023-01-29T12:45:19.820Z,102019.91
2023-01-29T12:47:50.533Z,102009.78
2023-01-29T12:50:21.745Z,102010.72
2023-01-29T12:52:53.324Z,102000.16
2023-01-29T12:55:24.106Z,101995.56
2023-01-29T12:57:58.969Z,101992.00
2023-01-29T13:00:30.557Z,101986.41
2023-01-29T13:03:04.530Z,101979.56
2023-01-29T13:05:39.633Z,101975.03
2023-01-29T13:08:12.747Z,101978.81
2023-01-29T13:10:46.176Z,101973.69
2023-01-29T13:13:23.089Z,101962.63
2023-01-29T13:15:53.443Z,101962.94
2023-01-29T13:18:41.261Z,101964.06
2023-01-29T13:21:15.197Z,101962.50
2023-01-29T13:23:47.011Z,101955.03
2023-01-29T13:26:19.005Z,101956.66
2023-01-29T13:28:49.333Z,101955.78
2023-01-29T13:31:25.337Z,101953.50
2023-01-29T13:33:56.955Z,101951.53
2023-01-29T13:36:29.082Z,101937.13
2023-01-29T13:39:02.947Z,101941.44
2023-01-29T13:41:39.528Z,101935.84
2023-01-29T13:44:20.049Z,101929.06
2023-01-29T13:46:53.036Z,101924.31
2023-01-29T13:49:40.329Z,101920.38
2023-01-29T13:52:18.476Z,101907.06
2023-01-29T13:54:55.006Z,101905.56
2023-01-29T13:57:55.663Z,101902.31
2023-01-29T14:01:00.274Z,101895.47
2023-01-29T14:04:03.820Z,101896.22
2023-01-29T14:06:50.587Z,101888.44
2023-01-29T14:09:54.856Z,101891.94
2023-01-29T14:12:39.778Z,101883.91
2023-01-29T14:15:26.998Z,101884.63
2023-01-29T14:18:16.149Z,101881.16
2023-01-29T14:20:54.529Z,101877.22
2023-01-29T14:23:31.916Z,101879.19
2023-01-29T14:26:04.755Z,101883.84
2023-01-29T14:28:34.862Z,101872.13
2023-01-29T14:31:04.109Z,101893.84
2023-01-29T14:33:39.840Z,101895.06
2023-01-29T14:36:14.286Z,101890.09
2023-01-29T14:38:48.258Z,101893.97
2023-01-29T14:41:25.482Z,101891.19
2023-01-29T14:44:13.291Z,101895.94
2023-01-29T14:46:45.955Z,101900.28
2023-01-29T14:49:13.991Z,101904.16
2023-01-29T14:51:45.014Z,101901.63
2023-01-29T14:54:26.478Z,101900.97
2023-01-29T14:57:02.315Z,101893.38
2023-01-29T14:59:33.803Z,101900.22
2023-01-29T15:02:13.854Z,101899.69
2023-01-29T15:04:47.250Z,101908.75
2023-01-29T15:07:29.046Z,101897.72
2023-01-29T15:10:21.415Z,101902.28
2023-01-29T15:12:54.047Z,101901.38
2023-01-29T15:15:27.541Z,101904.84
2023-01-29T15:18:00.802Z,101914.44
2023-01-29T15:20:31.523Z,101907.56
2023-01-29T15:22:59.716Z,101907.22
2023-01-29T15:25:30.903Z,101907.06
2023-01-29T15:28:00.744Z,101898.50
2023-01-29T15:30:34.359Z,101907.84
2023-01-29T15:33:04.617Z,101894.72
2023-01-29T15:35:37.121Z,101888.50
2023-01-29T15:38:07.432Z,101898.91
2023-01-29T15:40:36.027Z,101880.75
2023-01-29T15:43:03.901Z,101896.00
2023-01-29T15:45:33.689Z,101885.38
2023-01-29T15:48:05.769Z,101887.84
2023-01-29T15:50:38.077Z,101878.53
2023-01-29T15:53:10.607Z,101890.78
2023-01-29T15:55:38.631Z,101885.69
2023-01-29T15:58:08.500Z,101879.72
2023-01-29T16:00:36.985Z,101881.41
2023-01-29T16:03:16.862Z,101882.94
2023-01-29T16:05:45.192Z,101885.50
2023-01-29T16:08:15.096Z,101877.66
2023-01-29T16:10:45.314Z,101874.19
2023-01-29T16:13:21.569Z,101883.66
2023-01-29T16:15:58.157Z,101879.22
2023-01-29T16:18:34.477Z,101877.22
2023-01-29T16:21:09.252Z,101878.84
2023-01-29T16:23:42.323Z,101883.41
2023-01-29T16:26:16.528Z,101887.94
2023-01-29T16:28:45.517Z,101879.22
2023-01-29T16:31:15.329Z,101878.97
2023-01-29T16:33:45.446Z,101881.41
2023-01-29T16:36:18.740Z,101876.88
2023-01-29T16:38:50.185Z,101876.09
2023-01-29T16:41:30.892Z,101877.00
2023-01-29T16:44:00.156Z,101877.44
2023-01-29T16:46:34.820Z,101878.25
2023-01-29T16:49:24.665Z,101880.94
2023-01-29T16:51:53.217Z,101880.91
2023-01-29T16:54:25.036Z,101880.56
2023-01-29T16:56:56.729Z,101875.06
2023-01-29T16:59:30.710Z,101866.72
2023-01-29T17:01:59.404Z,101874.50
2023-01-29T17:04:29.512Z,101867.09
2023-01-29T17:06:59.770Z,101862.88
2023-01-29T17:09:30.531Z,101862.97
2023-01-29T17:12:00.490Z,101863.75
2023-01-29T17:14:31.876Z,101862.69
2023-01-29T17:17:05.102Z,101866.91
2023-01-29T17:19:34.712Z,101857.59
2023-01-29T17:22:05.518Z,101867.84
2023-01-29T17:24:33.664Z,101869.59
2023-01-29T17:27:02.487Z,101874.63
2023-01-29T17:29:32.667Z,101877.19
2023-01-29T17:32:00.588Z,101877.09
2023-01-29T17:34:28.520Z,101869.44
2023-01-29T17:36:57.717Z,101870.44
2023-01-29T17:39:25.569Z,101848.31
2023-01-29T17:41:55.785Z,101847.09
2023-01-29T17:44:26.022Z,101848.88
2023-01-29T17:46:53.896Z,101834.06
2023-01-29T17:49:24.954Z,101832.53
2023-01-29T17:51:53.152Z,101828.03
2023-01-29T17:54:23.022Z,101822.94
2023-01-29T17:56:51.613Z,101798.03
2023-01-29T17:59:22.841Z,101796.53
2023-01-29T18:01:51.945Z,101798.34
2023-01-29T18:04:20.148Z,101794.13
2023-01-29T18:06:50.107Z,101794.13
2023-01-29T18:09:20.794Z,101799.44
2023-01-29T18:11:51.328Z,101789.25
2023-01-29T18:14:19.879Z,101795.94
2023-01-29T18:16:48.154Z,101801.25
2023-01-29T18:19:20.880Z,101798.03
2023-01-29T18:21:49.407Z,101799.56
2023-01-29T18:24:17.846Z,101797.13
2023-01-29T18:26:45.860Z,101787.81
2023-01-29T18:29:15.159Z,101795.44
2023-01-29T18:31:43.181Z,101792.94
2023-01-29T18:34:11.191Z,101787.00
2023-01-29T18:36:39.284Z,101796.44
2023-01-29T18:39:07.303Z,101798.13
2023-01-29T18:41:35.218Z,101782.41
2023-01-29T18:44:03.096Z,101783.31
2023-01-29T18:46:32.267Z,101775.34
2023-01-29T18:49:00.099Z,101774.44
2023-01-29T18:51:28.024Z,101778.75
2023-01-29T18:53:56.435Z,101764.97
2023-01-29T18:56:25.010Z,101776.25
2023-01-29T18:58:56.049Z,101769.34
2023-01-29T19:01:24.966Z,101765.19
2023-01-29T19:03:54.426Z,101760.94
2023-01-29T19:06:22.307Z,101767.16
2023-01-29T19:08:50.178Z,101748.72
2023-01-29T19:11:18.369Z,101740.00
2023-01-29T19:13:47.875Z,101731.34
2023-01-29T19:16:15.746Z,101727.88
2023-01-29T19:18:43.772Z,101724.19
2023-01-29T19:21:15.919Z,101726.75
2023-01-29T19:23:44.796Z,101720.13
2023-01-29T19:26:13.287Z,101706.41
2023-01-29T19:28:41.775Z,101700.13
2023-01-29T19:31:11.141Z,101694.03
2023-01-29T19:33:39.315Z,101696.34
2023-01-29T19:36:08.357Z,101698.22
2023-01-29T19:38:38.773Z,101694.69
2023-01-29T19:41:07.077Z,101700.16
2023-01-29T19:43:35.018Z,101691.25
2023-01-29T19:46:02.971Z,101673.75
2023-01-29T19:48:30.984Z,101677.09
2023-01-29T19:51:00.516Z,101680.69
2023-01-29T19:53:29.922Z,101673.13
2023-01-29T19:56:00.310Z,101672.16
2023-01-29T19:58:28.747Z,101667.72
2023-01-29T20:00:57.710Z,101659.94
2023-01-29T20:03:26.415Z,101667.91
2023-01-29T20:05:54.723Z,101672.22
2023-01-29T20:08:23.829Z,101676.59
2023-01-29T20:10:51.637Z,101667.22
2023-01-29T20:13:20.885Z,101674.19
2023-01-29T20:15:50.316Z,101661.41
2023-01-29T20:18:18.902Z,101662.28
2023-01-29T20:20:48.166Z,101660.66
2023-01-29T20:23:25.105Z,101653.56
2023-01-29T20:26:04.446Z,101651.84
2023-01-29T20:28:34.428Z,101647.63
2023-01-29T20:31:02.378Z,101644.13
2023-01-29T20:33:30.497Z,101637.38
2023-01-29T20:36:00.599Z,101631.13
2023-01-29T20:38:31.371Z,101631.06
2023-01-29T20:41:04.149Z,101618.84
2023-01-29T20:43:33.963Z,101619.75
2023-01-29T20:46:02.323Z,101614.47
2023-01-29T20:48:31.270Z,101600.66
2023-01-29T20:51:05.332Z,101601.53
2023-01-29T20:53:33.555Z,101598.91
2023-01-29T20:56:04.095Z,101578.22
2023-01-29T20:58:33.618Z,101569.63
2023-01-29T21:01:01.592Z,101573.09
2023-01-29T21:03:29.376Z,101569.72
2023-01-29T21:05:59.148Z,101574.09
2023-01-29T21:08:27.154Z,101569.97
2023-01-29T21:10:54.968Z,101561.31
2023-01-29T21:13:22.914Z,101551.94
2023-01-29T21:15:52.220Z,101563.09
2023-01-29T21:18:20.281Z,101555.25
2023-01-29T21:20:50.145Z,101569.13
2023-01-29T21:23:18.012Z,101552.00
2023-01-29T21:25:46.219Z,101549.44
2023-01-29T21:28:14.006Z,101552.88
2023-01-29T21:30:41.896Z,101555.56
2023-01-29T21:33:11.187Z,101550.44
2023-01-29T21:35:38.960Z,101537.47
2023-01-29T21:38:06.793Z,101524.78
2023-01-29T21:40:34.670Z,101526.34
2023-01-29T21:43:13.467Z,101532.59
2023-01-29T21:45:42.078Z,101528.31
2023-01-29T21:48:12.417Z,101526.53
2023-01-29T21:50:40.301Z,101527.44
2023-01-29T21:53:08.110Z,101522.31
2023-01-29T21:55:35.918Z,101511.09
2023-01-29T21:58:04.252Z,101512.97
2023-01-29T22:00:32.426Z,101513.84
2023-01-29T22:03:00.381Z,101504.47
2023-01-29T22:05:30.124Z,101515.84
2023-01-29T22:07:58.018Z,101516.75
2023-01-29T22:10:25.979Z,101515.88
2023-01-29T22:12:54.057Z,101516.03
2023-01-29T22:15:23.694Z,101516.03
2023-01-29T22:17:52.151Z,101520.38
2023-01-29T22:20:20.481Z,101513.59
2023-01-29T22:22:49.808Z,101517.03
2023-01-29T22:25:20.056Z,101521.50
2023-01-29T22:27:47.913Z,101525.03
2023-01-29T22:30:16.310Z,101517.16
2023-01-29T22:32:44.479Z,101513.97
2023-01-29T22:35:12.444Z,101520.91
2023-01-29T22:37:40.885Z,101514.94
2023-01-29T22:40:11.419Z,101517.44
2023-01-29T22:42:39.265Z,101511.56
2023-01-29T22:45:08.257Z,101505.72
2023-01-29T22:47:36.132Z,101513.81
2023-01-29T22:50:04.334Z,101511.41
2023-01-29T22:52:38.520Z,101518.44
2023-01-29T22:55:13.308Z,101496.38
2023-01-29T22:57:41.337Z,101480.13
2023-01-29T23:00:11.827Z,101494.81
2023-01-29T23:02:39.606Z,101501.81
2023-01-29T23:05:08.602Z,101495.84
2023-01-29T23:07:36.478Z,101490.81
2023-01-29T23:10:04.486Z,101484.91
2023-01-29T23:12:33.905Z,101475.50
2023-01-29T23:15:01.683Z,101478.22
2023-01-29T23:17:29.635Z,101474.78
2023-01-29T23:19:57.413Z,101458.50
2023-01-29T23:22:25.262Z,101451.69
2023-01-29T23:24:53.099Z,101456.88
2023-01-29T23:27:20.055Z,101440.53
2023-01-29T23:29:49.313Z,101430.25
2023-01-29T23:32:19.045Z,101420.03
2023-01-29T23:34:46.872Z,101412.31
2023-01-29T23:37:14.830Z,101408.81
2023-01-29T23:39:42.650Z,101401.97
2023-01-29T23:42:10.468Z,101392.53
2023-01-29T23:44:40.094Z,101389.13
2023-01-29T23:47:10.073Z,101385.75
2023-01-29T23:49:38.393Z,101378.94
2023-01-29T23:52:06.587Z,101384.94
2023-01-29T23:54:34.446Z,101380.75
2023-01-29T23:57:02.212Z,101387.69
2023-01-29T23:59:30.144Z,101404.94
